createdAt,value
2023-02-27T00:01:51.565Z,66.39
2023-02-27T00:04:25.976Z,64.04
2023-02-27T00:07:13.568Z,51.85
2023-02-27T00:09:54.618Z,50.72
2023-02-27T00:12:39.224Z,53.70
2023-02-27T00:15:23.630Z,56.07
2023-02-27T00:18:05.749Z,57.17
2023-02-27T00:20:46.586Z,58.71
2023-02-27T00:23:28.857Z,60.66
2023-02-27T00:26:10.561Z,62.38
2023-02-27T00:28:51.681Z,64.29
2023-02-27T00:31:32.643Z,61.49
2023-02-27T00:34:27.646Z,49.93
2023-02-27T00:37:15.578Z,50.24
2023-02-27T00:39:51.431Z,53.99
2023-02-27T00:42:39.571Z,56.22
2023-02-27T00:45:14.683Z,59.17
2023-02-27T00:48:02.644Z,60.49
2023-02-27T00:50:44.516Z,61.56
2023-02-27T00:53:39.530Z,69.14
2023-02-27T00:56:27.582Z,58.33
2023-02-27T00:59:02.716Z,50.52
2023-02-27T01:01:51.575Z,51.77
2023-02-27T01:04:26.709Z,54.93
2023-02-27T01:07:15.535Z,56.48
2023-02-27T01:09:57.580Z,59.32
2023-02-27T01:12:45.538Z,60.17
2023-02-27T01:15:20.751Z,61.65
2023-02-27T01:18:08.595Z,62.04
2023-02-27T01:20:43.720Z,66.90
2023-02-27T01:23:31.661Z,58.79
2023-02-27T01:26:06.689Z,51.76
2023-02-27T01:28:54.626Z,52.56
2023-02-27T01:31:36.660Z,55.23
2023-02-27T01:34:34.114Z,57.54
2023-02-27T01:37:22.561Z,60.29
2023-02-27T01:39:57.661Z,61.42
2023-02-27T01:42:45.525Z,63.79
2023-02-27T01:45:40.909Z,63.31
2023-02-27T01:48:32.536Z,52.20
2023-02-27T01:51:28.765Z,51.21
2023-02-27T01:54:17.533Z,54.67
2023-02-27T01:56:51.869Z,56.29
2023-02-27T01:59:41.526Z,57.22
2023-02-27T02:02:30.720Z,59.79
2023-02-27T02:05:19.529Z,60.58
2023-02-27T02:07:54.649Z,62.17
2023-02-27T02:10:42.536Z,65.60
2023-02-27T02:13:24.541Z,60.74
2023-02-27T02:16:34.586Z,50.19
2023-02-27T02:19:35.532Z,51.30
2023-02-27T02:22:54.545Z,54.44
2023-02-27T02:26:37.604Z,56.36
2023-02-27T02:29:54.542Z,58.15
2023-02-27T02:32:56.649Z,60.10
2023-02-27T02:36:05.537Z,60.82
2023-02-27T02:38:58.643Z,62.09
2023-02-27T02:41:46.535Z,64.71
2023-02-27T02:44:42.682Z,57.27
2023-02-27T02:47:29.545Z,50.20
2023-02-27T02:50:17.584Z,51.47
2023-02-27T02:52:59.344Z,54.59
2023-02-27T02:56:03.529Z,55.68
2023-02-27T02:58:46.359Z,57.17
2023-02-27T03:01:43.556Z,59.05
2023-02-27T03:04:45.571Z,60.07
2023-02-27T03:07:40.576Z,61.17
2023-02-27T03:10:56.887Z,61.30
2023-02-27T03:13:48.506Z,62.94
2023-02-27T03:16:34.756Z,64.03
2023-02-27T03:19:42.522Z,54.01
2023-02-27T03:22:22.914Z,50.90
2023-02-27T03:25:11.493Z,53.35
2023-02-27T03:27:51.662Z,55.36
2023-02-27T03:31:10.044Z,57.23
2023-02-27T03:34:02.526Z,57.00
2023-02-27T03:37:07.211Z,59.85
2023-02-27T03:39:59.496Z,60.31
2023-02-27T03:42:39.883Z,60.65
2023-02-27T03:45:38.502Z,61.54
2023-02-27T03:48:13.048Z,63.02
2023-02-27T03:51:00.589Z,65.46
2023-02-27T03:53:48.873Z,53.99
2023-02-27T03:56:42.499Z,50.46
2023-02-27T03:59:17.360Z,53.03
2023-02-27T04:02:06.562Z,54.42
2023-02-27T04:04:40.942Z,55.88
2023-02-27T04:07:34.500Z,56.80
2023-02-27T04:10:37.504Z,56.85
2023-02-27T04:13:35.653Z,57.78
2023-02-27T04:16:41.506Z,58.97
2023-02-27T04:19:36.640Z,59.86
2023-02-27T04:22:20.549Z,59.66
2023-02-27T04:25:26.492Z,59.96
2023-02-27T04:28:26.520Z,60.50
2023-02-27T04:31:13.762Z,61.00
2023-02-27T04:34:20.551Z,60.69
2023-02-27T04:37:27.504Z,61.20
2023-02-27T04:40:19.537Z,60.56
2023-02-27T04:42:58.669Z,60.85
2023-02-27T04:45:48.586Z,60.81
2023-02-27T04:48:29.729Z,60.94
2023-02-27T04:51:21.505Z,60.93
2023-02-27T04:54:18.502Z,61.45
2023-02-27T04:57:16.495Z,61.20
2023-02-27T05:00:06.507Z,61.87
2023-02-27T05:02:43.739Z,62.38
2023-02-27T05:05:33.493Z,68.35
2023-02-27T05:08:16.842Z,67.54
2023-02-27T05:11:36.535Z,53.01
2023-02-27T05:14:23.492Z,48.54
2023-02-27T05:17:52.523Z,50.52
2023-02-27T05:20:35.498Z,53.57
2023-02-27T05:23:28.473Z,55.90
2023-02-27T05:26:22.492Z,58.19
2023-02-27T05:29:24.479Z,59.31
2023-02-27T05:32:21.616Z,60.76
2023-02-27T05:35:22.494Z,62.27
2023-02-27T05:38:17.483Z,64.96
2023-02-27T05:40:56.598Z,57.90
2023-02-27T05:44:13.606Z,49.97
2023-02-27T05:46:51.621Z,51.71
2023-02-27T05:49:44.562Z,54.36
2023-02-27T05:52:22.616Z,55.51
2023-02-27T05:55:18.830Z,56.69
2023-02-27T05:58:00.693Z,59.57
2023-02-27T06:01:11.470Z,60.73
2023-02-27T06:03:47.663Z,60.68
2023-02-27T06:06:37.486Z,63.87
2023-02-27T06:09:12.597Z,66.15
2023-02-27T06:12:00.485Z,55.41
2023-02-27T06:14:35.605Z,50.78
2023-02-27T06:17:23.476Z,52.14
2023-02-27T06:19:57.608Z,56.25
2023-02-27T06:22:45.464Z,57.53
2023-02-27T06:25:28.490Z,59.21
2023-02-27T06:28:23.472Z,61.84
2023-02-27T06:31:11.501Z,65.69
2023-02-27T06:33:46.696Z,64.12
2023-02-27T06:36:41.494Z,53.16
2023-02-27T06:39:23.142Z,51.19
2023-02-27T06:42:11.529Z,54.31
2023-02-27T06:44:45.946Z,57.23
2023-02-27T06:47:33.473Z,58.07
2023-02-27T06:50:11.365Z,58.75
2023-02-27T06:52:59.515Z,60.29
2023-02-27T06:55:34.139Z,61.64
2023-02-27T06:58:22.473Z,63.95
2023-02-27T07:01:00.166Z,65.04
2023-02-27T07:03:48.474Z,52.24
2023-02-27T07:07:33.347Z,47.71
2023-02-27T07:09:30.647Z,50.30
2023-02-27T07:12:13.457Z,53.12
2023-02-27T07:15:01.517Z,52.03
2023-02-27T07:17:36.032Z,54.59
2023-02-27T07:20:25.477Z,54.51
2023-02-27T07:22:59.866Z,54.29
2023-02-27T07:25:47.462Z,53.39
2023-02-27T07:28:22.058Z,56.31
2023-02-27T07:31:10.546Z,57.32
2023-02-27T07:33:51.444Z,56.63
2023-02-27T07:36:47.618Z,56.99
2023-02-27T07:39:35.447Z,56.42
2023-02-27T07:42:16.864Z,56.74
2023-02-27T07:44:58.463Z,57.84
2023-02-27T07:47:39.619Z,58.49
2023-02-27T07:50:20.456Z,58.29
2023-02-27T07:53:01.654Z,57.98
2023-02-27T07:55:43.550Z,58.57
2023-02-27T07:58:31.488Z,58.59
2023-02-27T08:01:06.009Z,57.53
2023-02-27T08:03:54.451Z,57.72
2023-02-27T08:06:29.354Z,58.71
2023-02-27T08:09:17.470Z,57.32
2023-02-27T08:11:54.450Z,57.51
2023-02-27T08:14:42.559Z,58.65
2023-02-27T08:17:23.459Z,58.20
2023-02-27T08:20:11.511Z,59.18
2023-02-27T08:22:52.848Z,57.66
2023-02-27T08:25:34.601Z,58.18
2023-02-27T08:28:15.451Z,58.06
2023-02-27T08:31:03.568Z,58.91
2023-02-27T08:34:09.536Z,57.74
2023-02-27T08:37:06.446Z,57.81
2023-02-27T08:40:01.451Z,57.69
2023-02-27T08:42:49.465Z,58.18
2023-02-27T08:45:24.595Z,58.06
2023-02-27T08:48:12.586Z,57.85
2023-02-27T08:50:47.804Z,57.69
2023-02-27T08:53:36.472Z,57.97
2023-02-27T08:56:11.700Z,57.64
2023-02-27T08:58:59.524Z,58.03
2023-02-27T09:01:41.521Z,57.26
2023-02-27T09:04:29.436Z,57.04
2023-02-27T09:07:04.618Z,57.39
2023-02-27T09:09:52.441Z,56.77
2023-02-27T09:12:27.590Z,56.86
2023-02-27T09:15:16.441Z,57.79
2023-02-27T09:17:58.440Z,57.22
2023-02-27T09:20:53.528Z,56.99
2023-02-27T09:23:41.444Z,56.61
2023-02-27T09:26:17.278Z,56.98
2023-02-27T09:29:05.449Z,56.94
2023-02-27T09:31:40.632Z,57.35
2023-02-27T09:34:28.445Z,58.09
2023-02-27T09:37:23.428Z,58.52
2023-02-27T09:40:13.446Z,58.61
2023-02-27T09:42:57.437Z,58.55
2023-02-27T09:45:52.500Z,59.10
2023-02-27T09:48:48.562Z,59.42
2023-02-27T09:51:24.769Z,60.04
2023-02-27T09:54:12.446Z,60.54
2023-02-27T09:56:53.613Z,61.13
2023-02-27T09:59:47.450Z,61.33
2023-02-27T10:02:55.728Z,61.89
2023-02-27T10:05:58.929Z,71.22
2023-02-27T10:08:54.427Z,72.31
2023-02-27T10:12:14.028Z,60.14
2023-02-27T10:15:06.481Z,48.22
2023-02-27T10:17:51.447Z,47.55
2023-02-27T10:20:37.643Z,49.25
2023-02-27T10:23:26.421Z,50.78
2023-02-27T10:26:14.436Z,52.05
2023-02-27T10:28:48.858Z,52.17
2023-02-27T10:31:44.457Z,52.57
2023-02-27T10:34:25.435Z,54.73
2023-02-27T10:37:21.475Z,53.94
2023-02-27T10:40:19.470Z,53.68
2023-02-27T10:43:08.488Z,52.90
2023-02-27T10:45:44.103Z,54.72
2023-02-27T10:48:32.501Z,55.95
2023-02-27T10:51:34.474Z,55.40
2023-02-27T10:54:32.427Z,55.77
2023-02-27T10:57:26.444Z,56.59
2023-02-27T11:00:12.707Z,56.98
2023-02-27T11:03:01.694Z,58.08
2023-02-27T11:05:40.254Z,58.87
2023-02-27T11:08:32.525Z,59.76
2023-02-27T11:11:16.580Z,60.24
2023-02-27T11:14:26.517Z,60.69
2023-02-27T11:17:13.929Z,61.14
2023-02-27T11:20:09.411Z,61.10
2023-02-27T11:23:12.555Z,62.17
2023-02-27T11:26:02.411Z,65.67
2023-02-27T11:28:36.964Z,67.55
2023-02-27T11:31:35.587Z,54.46
2023-02-27T11:34:25.408Z,50.37
2023-02-27T11:37:32.425Z,52.18
2023-02-27T11:40:30.430Z,54.22
2023-02-27T11:43:28.431Z,56.20
2023-02-27T11:46:30.211Z,58.18
2023-02-27T11:49:31.437Z,58.88
2023-02-27T11:52:33.559Z,59.33
2023-02-27T11:55:24.420Z,60.10
2023-02-27T11:58:12.549Z,60.31
2023-02-27T12:01:38.221Z,60.39
2023-02-27T12:04:27.949Z,60.63
2023-02-27T12:07:37.465Z,61.57
2023-02-27T12:10:18.837Z,61.45
2023-02-27T12:13:28.400Z,61.77
2023-02-27T12:16:24.647Z,60.92
2023-02-27T12:19:51.613Z,60.90
2023-02-27T12:22:26.548Z,60.54
2023-02-27T12:25:20.623Z,60.53
2023-02-27T12:28:02.621Z,60.80
2023-02-27T12:31:08.572Z,61.33
2023-02-27T12:34:07.552Z,61.68
2023-02-27T12:37:02.428Z,61.15
2023-02-27T12:39:58.402Z,62.88
2023-02-27T12:43:02.612Z,68.79
2023-02-27T12:45:56.051Z,59.78
2023-02-27T12:48:44.406Z,51.58
2023-02-27T12:51:48.386Z,49.80
2023-02-27T12:54:49.401Z,52.00
2023-02-27T12:57:54.424Z,54.01
2023-02-27T13:00:38.412Z,54.82
2023-02-27T13:03:43.458Z,54.86
2023-02-27T13:06:39.417Z,55.54
2023-02-27T13:09:47.403Z,56.31
2023-02-27T13:12:57.424Z,57.44
2023-02-27T13:15:58.409Z,58.06
2023-02-27T13:18:58.384Z,59.11
2023-02-27T13:22:08.611Z,59.87
2023-02-27T13:24:58.604Z,59.59
2023-02-27T13:27:40.062Z,59.70
2023-02-27T13:30:32.499Z,60.02
2023-02-27T13:33:14.614Z,60.42
2023-02-27T13:36:24.723Z,61.02
2023-02-27T13:39:50.414Z,61.54
2023-02-27T13:42:34.549Z,61.64
2023-02-27T13:45:55.542Z,61.61
2023-02-27T13:48:53.929Z,61.77
2023-02-27T13:51:53.400Z,61.79
2023-02-27T13:54:28.553Z,62.17
2023-02-27T13:57:40.373Z,61.63
2023-02-27T14:00:24.222Z,61.20
2023-02-27T14:03:18.548Z,61.06
2023-02-27T14:05:54.505Z,61.06
2023-02-27T14:08:46.391Z,60.80
2023-02-27T14:11:29.123Z,60.87
2023-02-27T14:14:18.449Z,60.91
2023-02-27T14:17:00.378Z,61.16
2023-02-27T14:19:48.522Z,61.31
2023-02-27T14:22:37.381Z,61.84
2023-02-27T14:25:35.392Z,61.79
2023-02-27T14:28:30.469Z,61.78
2023-02-27T14:31:21.403Z,62.44
2023-02-27T14:34:03.389Z,66.25
2023-02-27T14:37:03.568Z,60.93
2023-02-27T14:40:03.126Z,49.82
2023-02-27T14:43:10.581Z,49.86
2023-02-27T14:45:45.638Z,52.00
2023-02-27T14:48:34.388Z,54.23
2023-02-27T14:51:16.393Z,56.16
2023-02-27T14:54:26.593Z,57.12
2023-02-27T14:57:20.401Z,58.21
2023-02-27T14:59:57.522Z,58.93
2023-02-27T15:02:45.376Z,59.53
2023-02-27T15:05:22.530Z,59.58
2023-02-27T15:08:10.376Z,59.86
2023-02-27T15:10:48.604Z,60.49
2023-02-27T15:13:39.382Z,61.25
2023-02-27T15:16:40.494Z,61.34
2023-02-27T15:19:40.388Z,63.68
2023-02-27T15:22:39.930Z,66.45
2023-02-27T15:25:47.536Z,55.96
2023-02-27T15:28:49.371Z,50.23
2023-02-27T15:31:38.450Z,51.45
2023-02-27T15:34:25.382Z,54.09
2023-02-27T15:37:20.389Z,54.34
2023-02-27T15:40:15.380Z,56.69
2023-02-27T15:43:04.392Z,57.89
2023-02-27T15:45:52.376Z,58.02
2023-02-27T15:48:27.094Z,58.40
2023-02-27T15:51:17.382Z,59.94
2023-02-27T15:54:01.361Z,60.05
2023-02-27T15:56:44.563Z,60.30
2023-02-27T15:59:26.358Z,60.19
2023-02-27T16:02:14.391Z,61.33
2023-02-27T16:04:49.430Z,61.90
2023-02-27T16:07:40.381Z,61.83
2023-02-27T16:10:28.398Z,61.46
2023-02-27T16:13:47.368Z,61.73
2023-02-27T16:16:23.311Z,61.98
2023-02-27T16:19:07.364Z,62.29
2023-02-27T16:21:42.491Z,73.81
2023-02-27T16:24:28.465Z,71.75
2023-02-27T16:27:09.496Z,57.76
2023-02-27T16:29:51.388Z,50.52
2023-02-27T16:32:50.569Z,49.38
2023-02-27T16:35:41.627Z,50.79
2023-02-27T16:38:30.508Z,52.48
2023-02-27T16:41:05.603Z,53.08
2023-02-27T16:43:54.355Z,54.27
2023-02-27T16:46:36.527Z,55.24
2023-02-27T16:49:35.378Z,56.49
2023-02-27T16:52:18.488Z,57.49
2023-02-27T16:54:59.382Z,58.58
2023-02-27T16:57:40.543Z,58.78
2023-02-27T17:00:22.637Z,59.66
2023-02-27T17:03:04.803Z,60.22
2023-02-27T17:05:46.393Z,60.39
2023-02-27T17:08:27.514Z,59.87
2023-02-27T17:11:10.373Z,61.07
2023-02-27T17:13:58.386Z,61.36
2023-02-27T17:16:35.623Z,61.61
2023-02-27T17:19:28.348Z,61.80
2023-02-27T17:22:03.442Z,61.67
2023-02-27T17:24:52.346Z,64.58
2023-02-27T17:27:33.369Z,69.17
2023-02-27T17:30:15.560Z,62.28
2023-02-27T17:32:59.745Z,52.52
2023-02-27T17:35:55.444Z,48.65
2023-02-27T17:38:44.369Z,49.82
2023-02-27T17:41:20.499Z,52.56
2023-02-27T17:44:10.362Z,53.14
2023-02-27T17:46:52.300Z,55.24
2023-02-27T17:49:33.377Z,55.91
2023-02-27T17:52:15.488Z,57.39
2023-02-27T17:54:56.596Z,59.40
2023-02-27T17:57:49.346Z,59.53
2023-02-27T18:00:23.992Z,60.21
2023-02-27T18:03:39.655Z,61.30
2023-02-27T18:06:26.596Z,60.83
2023-02-27T18:09:17.785Z,62.29
2023-02-27T18:12:00.597Z,69.26
2023-02-27T18:15:05.813Z,67.14
2023-02-27T18:21:16.416Z,46.90
2023-02-27T18:23:52.312Z,47.26
2023-02-27T18:26:57.517Z,50.30
2023-02-27T18:29:36.935Z,52.68
2023-02-27T18:32:36.411Z,52.26
2023-02-27T18:35:52.738Z,53.32
2023-02-27T18:39:30.165Z,54.47
2023-02-27T18:42:31.235Z,56.54
2023-02-27T18:45:23.373Z,57.56
2023-02-27T18:48:18.384Z,57.45
2023-02-27T18:51:12.416Z,57.86
2023-02-27T18:53:48.553Z,59.52
2023-02-27T18:56:53.853Z,60.62
2023-02-27T18:59:36.187Z,60.56
2023-02-27T19:02:29.451Z,61.70
2023-02-27T19:05:18.362Z,61.30
2023-02-27T19:08:51.915Z,61.88
2023-02-27T19:11:42.464Z,70.51
2023-02-27T19:14:22.654Z,70.34
2023-02-27T19:17:10.554Z,58.09
2023-02-27T19:19:55.267Z,49.56
2023-02-27T19:22:46.611Z,48.21
2023-02-27T19:25:30.380Z,49.47
2023-02-27T19:28:51.662Z,51.22
2023-02-27T19:31:40.690Z,50.99
2023-02-27T19:34:30.927Z,52.74
2023-02-27T19:37:09.054Z,54.39
2023-02-27T19:39:58.357Z,55.14
2023-02-27T19:42:33.635Z,56.04
2023-02-27T19:45:22.656Z,56.98
2023-02-27T19:48:03.789Z,58.60
2023-02-27T19:50:48.984Z,58.11
2023-02-27T19:53:31.850Z,58.71
2023-02-27T19:56:17.033Z,59.27
2023-02-27T19:59:06.686Z,60.09
2023-02-27T20:01:48.316Z,59.63
2023-02-27T20:04:38.998Z,59.40
2023-02-27T20:07:36.626Z,60.14
2023-02-27T20:10:26.332Z,60.83
2023-02-27T20:13:01.522Z,60.61
2023-02-27T20:15:49.471Z,60.85
2023-02-27T20:18:27.728Z,61.52
2023-02-27T20:21:22.348Z,65.80
2023-02-27T20:24:04.700Z,72.57
2023-02-27T20:27:04.532Z,60.77
2023-02-27T20:29:52.354Z,47.56
2023-02-27T20:32:31.474Z,48.13
2023-02-27T20:35:22.416Z,48.73
2023-02-27T20:38:05.329Z,50.10
2023-02-27T20:40:48.024Z,50.87
2023-02-27T20:43:40.823Z,52.60
2023-02-27T20:46:25.315Z,53.99
2023-02-27T20:49:15.331Z,53.53
2023-02-27T20:51:49.783Z,54.78
2023-02-27T20:54:37.468Z,54.80
2023-02-27T20:57:11.737Z,56.02
2023-02-27T21:00:00.323Z,55.77
2023-02-27T21:02:36.084Z,57.15
2023-02-27T21:05:24.378Z,57.01
2023-02-27T21:07:59.937Z,58.68
2023-02-27T21:10:53.321Z,59.57
2023-02-27T21:13:35.321Z,59.25
2023-02-27T21:16:18.175Z,59.70
2023-02-27T21:19:00.321Z,58.87
2023-02-27T21:21:43.026Z,58.41
2023-02-27T21:24:25.506Z,59.48
2023-02-27T21:27:07.493Z,60.29
2023-02-27T21:29:48.319Z,60.01
2023-02-27T21:32:36.322Z,59.53
2023-02-27T21:35:11.388Z,60.24
2023-02-27T21:37:59.311Z,60.11
2023-02-27T21:40:40.592Z,60.29
2023-02-27T21:43:21.989Z,60.64
2023-02-27T21:46:03.407Z,60.96
2023-02-27T21:48:45.808Z,60.87
2023-02-27T21:51:39.239Z,61.42
2023-02-27T21:54:22.770Z,60.30
2023-02-27T21:57:08.303Z,61.01
2023-02-27T21:59:49.685Z,61.25
2023-02-27T22:02:31.396Z,61.61
2023-02-27T22:05:20.308Z,61.71
2023-02-27T22:08:15.310Z,61.16
2023-02-27T22:11:07.365Z,61.18
2023-02-27T22:13:49.336Z,61.83
2023-02-27T22:16:44.346Z,68.33
2023-02-27T22:19:32.298Z,72.39
2023-02-27T22:22:09.101Z,62.44
2023-02-27T22:24:57.292Z,49.33
2023-02-27T22:27:39.298Z,46.06
2023-02-27T22:30:34.297Z,46.59
2023-02-27T22:33:22.323Z,48.06
2023-02-27T22:36:08.319Z,49.28
2023-02-27T22:39:03.277Z,50.12
2023-02-27T22:41:52.304Z,50.85
2023-02-27T22:44:33.783Z,51.41
2023-02-27T22:47:16.308Z,51.97
2023-02-27T22:49:58.785Z,52.69
2023-02-27T22:52:44.317Z,53.78
2023-02-27T22:55:32.478Z,54.16
2023-02-27T22:58:07.698Z,54.43
2023-02-27T23:00:55.311Z,54.69
2023-02-27T23:03:36.343Z,55.27
2023-02-27T23:06:20.437Z,55.89
2023-02-27T23:09:01.405Z,56.44
2023-02-27T23:11:42.400Z,58.47
2023-02-27T23:14:24.530Z,57.88
2023-02-27T23:17:13.916Z,57.65
2023-02-27T23:19:48.824Z,58.05
2023-02-27T23:22:40.294Z,58.27
2023-02-27T23:25:15.060Z,58.37
2023-02-27T23:28:03.916Z,58.55
2023-02-27T23:30:40.194Z,58.87
2023-02-27T23:33:28.299Z,60.05
2023-02-27T23:36:17.482Z,60.57
2023-02-27T23:39:05.303Z,59.88
2023-02-27T23:41:40.563Z,59.79
2023-02-27T23:44:46.415Z,60.60
2023-02-27T23:47:47.461Z,60.28
2023-02-27T23:50:44.446Z,59.97
2023-02-27T23:53:26.294Z,60.13
2023-02-27T23:56:21.292Z,60.26
2023-02-27T23:59:00.456Z,60.47
